x

Neah Bay, - 6nm North Of Cape Flattery, Wa (traffic Separation Lighted Buoy) (46087) Wave Buoy

1:20 - Thu 30th Jul 2015 All times are PDT. -7 hours from GMT.

  • Sig Wave height 4.6ft
  • Swell Direction
  • Peak Period 8s
  • Average Period 6s
  • Wind
    7mph, 9mph gusts
  • Sea Temp 59°f
  • Aire Temp 63°f
  • Sea Pressure 1019.6mb
  • Neah Bay, - 6nm North Of Cape Flattery, Wa     (traffic Separation Lighted Buoy)
  • Neah Bay, - 6nm North Of Cape Flattery, Wa     (traffic Separation Lighted Buoy)

More Historic Weather Station data

Upgrade to MSW Pro to gain access to the past 30 days of data for over 8000 Wavebouys and Weather Stations around the globe.

Join Pro

Comparision Forecast

View Surf forecast
   
jue 07/30 1:20 4.5ft 8s 6s 7 9 mph 1019.6mb 59f 63f
12:50 5ft 7s 6s 7 9 mph 1019.5mb 59f 62f
12:20 5ft 8s 6s 7 9 mph 1019.4mb 59f 62f
11:50 4.5ft 8s 6s 4 7 mph 1019.5mb 58f 61f
11:20 5ft 7s 6s 7 9 mph 1019.4mb 58f 60f
10:50 5ft 6s 7s 4 7 mph 1019.6mb 58f 59f
10:20 4.5ft 16s 7s 7 9 mph 1019.6mb 57f 59f
9:50 5ft 9s  -  9 11 mph 1019.6mb 57f 59f
9:20 4.5ft 9s  -  9 11 mph 1019.7mb 57f 58f
8:50 4.5ft 9s 7s 9 11 mph 1019.8mb 57f 57f
8:20 4.5ft 16s 7s 9 11 mph 1019.8mb 57f 57f
7:50 4.5ft 9s 7s 9 11 mph 1019.7mb 57f 58f
7:20 4ft 9s 7s 9 11 mph 1019.6mb 57f 58f
6:50 3.5ft 9s 7s 7 9 mph 1019.5mb 57f 57f
6:20 4ft 9s 7s 7
mph
1019.6mb 57f 57f
5:50 3.5ft 9s 7s 4 7 mph 1019.4mb 57f 57f
5:20 4ft 9s 7s 4
mph
1019.2mb 57f 56f
4:50 3.5ft 9s 7s 2
mph
1019.2mb 57f 56f
4:20 4ft 9s 7s 2
mph
1019mb 57f 56f
3:50 4ft 8s 7s 2
mph
1019.1mb 57f 57f
3:20 4.5ft 9s 7s 2 4 mph 1019mb 57f 57f
2:50 4.5ft 9s 7s 2 4 mph 1019.1mb 57f 56f
2:20 4ft 9s 7s 2 4 mph 1019.1mb 56f 56f
1:50 4ft 9s 7s 4
mph
1019.2mb 56f 55f
1:20 4ft 9s 6s 4
mph
1019.1mb 56f 55f
12:50 4.5ft 16s 6s 4
mph
1019.2mb 56f 56f
12:20 3.5ft 16s 6s 4 7 mph 1019.3mb 55f 56f
mié 07/29 11:50 4.5ft 16s 6s 4 7 mph 1019.3mb 55f 57f
11:20 4.5ft 9s 6s 7
mph
1019.4mb 55f 58f
10:50 4.5ft 16s 6s 4 7 mph 1019.6mb 56f 59f
10:20 5ft 10s 7s 2 4 mph 1019.5mb 56f 59f
9:50 5ft 8s 6s 11 16 mph 1019.2mb 56f 60f
9:20 5ft 9s 7s 9 13 mph 1019.1mb 56f 60f
8:50 5ft 10s 7s 11 13 mph 1019mb 57f 60f
8:20 5ft 10s 6s 13 16 mph 1019.1mb 57f 60f
7:50 5ft 10s 7s 13 18 mph 1019.3mb 58f 60f
7:20 5ft 10s 7s 9 11 mph 1019.6mb 58f 60f
6:50 4.5ft 10s 7s 11 16 mph 1019.9mb 59f 60f
6:20 4.5ft 10s 7s 11 13 mph 1020.3mb 59f 60f
5:50 4.5ft 10s 7s 9 11 mph 1020.5mb 59f 60f
5:20 4.5ft 10s 7s 9 11 mph 1020.8mb 58f 60f
4:50 4.5ft 9s 7s 9 11 mph 1021.1mb 58f 60f
4:20 4ft 10s 7s 11
mph
1021.3mb 58f 59f
3:50 4ft 10s 7s 9
mph
1021.5mb 58f 59f
3:20 3.5ft 16s 7s 9
mph
1021.8mb 58f 58f
2:50 4.5ft 9s 7s 9
mph
1021.9mb 58f 57f
2:20 4.5ft 9s 7s 9 11 mph 1022mb 58f 57f
1:50 4.5ft 9s 7s 9 11 mph 1022mb 58f 55f
1:20 5ft 8s 7s 7
mph
1022mb 58f 55f
12:50 4.5ft 9s 6s 4 7 mph 1022.1mb 57f 56f
12:20 5ft 8s 6s 4
mph
1022.2mb 57f 56f
11:50 5ft 10s 7s 2 4 mph 1022.5mb 57f 55f
11:20 5ft 9s 6s 2 4 mph 1022.5mb 57f 54f
10:50 5ft 9s 7s 2 4 mph 1022.5mb 56f 54f
10:20 5.5ft 10s 7s 2
mph
1022.5mb 56f 54f
9:50 5ft 10s 8s  -  2 mph 1022.7mb 56f 53f
8:50 5ft 10s 8s 2
mph
1022.9mb 56f 53f
8:20 5ft 10s 8s 2 4 mph 1023mb 56f 53f
7:50 5ft 10s 8s 4 7 mph 1022.8mb 56f 53f
7:20 5ft 10s 8s 4 7 mph 1022.8mb 56f 54f
6:50 4.5ft 10s 8s 9 11 mph 1022.6mb 56f 55f
6:20 4.5ft 10s 8s 4 7 mph 1022.4mb 56f 56f
5:50 4ft 10s 8s 2 4 mph 1022.3mb 56f 57f
5:20 4ft 10s 7s 2 4 mph 1022.4mb 56f 57f
4:50 4.5ft 10s 7s 2
mph
1022.5mb 56f 57f
4:20 4ft 11s 7s 2
mph
1022.4mb 56f 57f
3:50 4ft 10s 7s 4 7 mph 1022.3mb 56f 57f
3:20 4ft 10s 7s 4 7 mph 1022.3mb 56f 57f
2:50 4.5ft 10s 7s 4 7 mph 1022.3mb 56f 56f
2:20 4.5ft 9s 7s 4
mph
1022.4mb 56f 56f
1:50 3.5ft 17s 6s 4 7 mph 1022.6mb 56f 56f
1:20 4ft 17s 7s 4 7 mph 1022.7mb 56f 56f
12:50 3.5ft 17s 6s 4 7 mph 1022.7mb 56f 57f
12:20 4ft 17s 6s 7 9 mph 1022.6mb 56f 58f
mar 07/28 11:50 4ft 9s 6s 4
mph
1022.8mb 56f 58f
11:20 4.5ft 9s 6s 2 4 mph 1022.9mb 56f 57f
10:50 4.5ft 10s 6s 4
mph
1023mb 56f 58f
10:20 4.5ft 9s 6s 9 13 mph 1023mb 56f 58f
9:50 4.5ft 9s 6s 9 11 mph 1023.1mb 56f 58f
9:20 4.5ft 9s 6s 7 9 mph 1023.1mb 56f 58f
8:50 4.5ft 9s 6s 11 13 mph 1022.9mb 57f 58f
8:20 4.5ft 9s 7s 11 16 mph 1023.1mb 57f 59f
7:50 4.5ft 9s 7s 11 13 mph 1023.3mb 57f 59f
7:20 5ft 10s 7s 13 18 mph 1023.3mb 57f 59f
6:50 5ft 10s 8s 11 13 mph 1023.4mb 57f 59f
6:20 4.5ft 9s 7s 9 11 mph 1023.6mb 58f 60f
5:50 4ft 8s 7s 9 11 mph 1024mb 58f 60f
5:20 4.5ft 8s 8s 7 9 mph 1024.1mb 58f 60f
4:50 4ft 8s 7s 4
mph
1024.4mb 58f 58f
4:20 4.5ft 9s 7s 7 11 mph 1024.5mb 58f 58f
3:50 4.5ft 10s 7s 9 11 mph 1024.6mb 58f 58f
3:20 3.5ft 11s 7s 7
mph
1024.9mb 57f 58f
2:50 3.5ft 9s 7s 9 11 mph 1025mb 57f 58f
2:20 3.5ft 10s 7s 11 13 mph 1025.1mb 57f 57f
1:50 3.5ft 10s 7s 13 18 mph 1025.2mb 57f 56f
1:20 3.5ft 9s 7s 9 11 mph 1025.5mb 57f 57f
12:50 3.5ft 9s 6s 9 13 mph 1025.5mb 57f 57f
12:20 3.5ft 8s 6s 7 9 mph 1025.7mb 57f 57f
11:50 3.5ft 9s 6s 4
mph
1025.7mb 57f 57f
11:20 3.5ft 11s 6s 4
mph
1025.6mb 57f 56f
10:50 3.5ft 8s 6s 2
mph
1025.6mb 56f 56f
10:20 3.5ft 9s 6s 2 4 mph 1025.6mb 56f 56f
9:50 4ft 9s 7s 2 4 mph 1025.8mb 56f 56f
9:20 3.5ft 8s 6s 2 4 mph 1025.8mb 56f 56f
8:50 4ft 9s 6s 2 4 mph 1025.9mb 56f 56f
8:20 3.5ft 9s 6s 4
mph
1025.7mb 56f 57f
7:50 4ft 9s 7s 2 4 mph 1025.6mb 56f 57f
7:20 3.5ft 8s 7s 2
mph
1025.4mb 56f 57f
6:50 3.5ft 8s 7s 2
mph
1025.3mb 56f 57f
6:20 3.5ft 9s 7s 4 7 mph 1025.1mb 57f 57f
5:50 3.5ft 8s 7s 2
mph
1025mb 57f 57f
5:20 3.5ft 9s 7s 2 4 mph 1024.9mb 57f 57f
4:50 3.5ft 8s 7s 4
mph
1024.9mb 57f 58f
4:20 3.5ft 9s 7s 4 7 mph 1025mb 57f 58f
3:50 3ft 8s 6s 2 4 mph 1024.9mb 57f 58f
3:20 3.5ft 9s 6s 4
mph
1024.8mb 57f 58f
2:50 3.5ft 8s 6s 2
mph
1024.8mb 57f 58f
2:20 3.5ft 8s 6s 4
mph
1024.7mb 57f 58f
1:50 3ft 6s 6s 2 4 mph 1024.6mb 56f 58f
1:20 3ft 9s 6s 4 7 mph 1024.5mb 56f 58f
12:50 3ft 9s 5s 7
mph
1024.4mb 55f 58f
12:20 3ft 8s 5s 9
mph
1024.4mb 55f 58f
lun 07/27 11:50 3ft 8s 5s 9 11 mph 1024.3mb 55f 58f
11:20 3ft 9s 5s 9 11 mph 1024.3mb 55f 58f
10:50 3.5ft 9s 5s 9 11 mph 1024.4mb 55f 58f
10:20 3ft 9s 5s 11 13 mph 1024.5mb 55f 58f
9:50 3.5ft 9s 5s 11 13 mph 1024.5mb 55f 58f
9:20 3.5ft 6s 5s 11 13 mph 1024.3mb 55f 59f
8:50 3.5ft 9s 5s 11 13 mph 1024.2mb 56f 59f
8:20 3.5ft 9s 5s 11 13 mph 1024.2mb 56f 59f
7:50 4ft 6s 6s 13 16 mph 1024.1mb 58f 59f
7:20 4ft 6s 6s 9 11 mph 1023.8mb 58f 60f
6:50 4ft 7s 6s 9
mph
1023.6mb 58f 60f
6:20 4ft 8s 6s 9 11 mph 1023.7mb 58f 60f
5:50 4.5ft 9s 6s 7
mph
1023.7mb 59f 59f
5:20 4.5ft 7s 6s 4 7 mph 1023.6mb 58f 59f
4:50 4.5ft 8s 6s 4 7 mph 1023.5mb 58f 59f
4:20 4ft 8s 6s 7 9 mph 1023.5mb 58f 59f
3:50 4ft 8s 6s 7 9 mph 1023.4mb 58f 60f
3:20 4ft 8s 6s 7 9 mph 1023.4mb 58f 60f
2:50 3.5ft 7s 6s 9
mph
1023.2mb 58f 60f
2:20 3.5ft 7s 6s 4 7 mph 1023mb 58f 60f
1:50 3.5ft 6s 6s 4
mph
1022.9mb 58f 59f
1:20 3.5ft 9s 6s 4
mph
1022.7mb 58f 59f
12:50 3.5ft 7s 6s 2 4 mph 1022.7mb 57f 59f
12:20 4ft 9s 6s 2 4 mph 1022.6mb 57f 59f
11:50 4.5ft 6s 6s 2 4 mph 1022.5mb 57f 58f
11:20 4.5ft 6s 6s 4
mph
1022.3mb 57f 58f
10:50 5ft 7s 6s 4 7 mph 1022.1mb 57f 58f
10:20 5ft 7s 6s 7
mph
1022.1mb 57f 57f
9:50 5ft 7s 6s 7 9 mph 1021.8mb 57f 57f
9:20 5ft 7s 6s 11 13 mph 1021.5mb 57f 58f
8:50 5ft 7s 6s 11 13 mph 1021.5mb 57f 57f
8:20 4.5ft 8s 6s 9 11 mph 1021.2mb 57f 57f
7:50 4.5ft 7s 6s 9 11 mph 1021.2mb 57f 57f
7:20 4.5ft 7s 6s 7 9 mph 1020.8mb 57f 57f
6:50 4ft 7s 6s 7 9 mph 1020.7mb 57f 57f
6:20 4.5ft 10s 7s 7 9 mph 1020.4mb 57f 57f
5:50 4.5ft 10s 7s 9 11 mph 1020.2mb 56f 57f
5:20 4ft 10s 7s 9 11 mph 1020.1mb 56f 57f
4:50 3.5ft 10s 7s 9 11 mph 1019.9mb 57f 57f
4:20 3.5ft 10s  -  9 11 mph 1019.7mb 57f 57f
3:50 3.5ft 10s 7s 7 9 mph 1019.6mb 58f 57f
3:20 4ft 9s 7s 7 9 mph 1019.5mb 58f 57f
2:50 4ft 10s 7s 7
mph
1019.5mb 58f 58f
2:20 4ft 11s 7s 7 9 mph 1019.3mb 60f 58f
1:50 4ft 9s 7s 2 4 mph 1019.3mb 60f 59f
1:20 4ft 10s 6s 4 7 mph 1019.3mb 60f 60f
12:50 4.5ft 9s 7s 4 7 mph 1019.3mb 60f 60f
12:20 4ft 9s 6s 7 9 mph 1019.2mb 60f 60f
dom 07/26 11:50 4.5ft 9s 7s 7 9 mph 1019.3mb 60f 60f
11:20 4ft 9s 7s 9 11 mph 1019.3mb 60f 60f
10:50 4ft 9s 6s 11 13 mph 1019.3mb 60f 60f
10:20 4ft 9s 7s 11 13 mph 1019.2mb 60f 60f
9:50 3.5ft 9s 6s 11 13 mph 1019.1mb 60f 60f
9:20 3.5ft 9s 6s 13 16 mph 1018.9mb 60f 60f